Time;durP1;ratioP1;P1;durP2;ratioP2;P2;SDS_P1;SDS_P2;PMS_P1;PMS_P2;Temp;Humidity;BMP_temperature;BMP_pressure;BME280_temperature;BME280_humidity;BME280_pressure;Samples;Min_cycle;Max_cycle;Signal;HPM_P1;HPM_P2
2022/03/26 00:04:36;;;;;;;27.00;13.43;;;12.80;43.50;;;;;;10078613;28;20127;-64
2022/03/26 00:09:26;;;;;;;28.10;13.65;;;12.70;43.80;;;;;;10080230;28;20384;-63
2022/03/26 00:14:17;;;;;;;28.38;14.23;;;12.70;43.60;;;;;;10047354;28;20131;-62
2022/03/26 00:19:07;;;;;;;30.48;13.75;;;12.70;43.60;;;;;;10069159;28;20045;-62
2022/03/26 00:23:58;;;;;;;28.00;12.80;;;12.60;44.10;;;;;;10062691;28;20120;-64
2022/03/26 00:28:49;;;;;;;28.83;14.02;;;12.60;43.90;;;;;;10058043;28;20148;-64
2022/03/26 00:33:42;;;;;;;26.60;12.77;;;12.50;44.20;;;;;;10082540;28;20056;-66
2022/03/26 00:38:32;;;;;;;25.63;13.10;;;12.50;44.10;;;;;;10082932;28;20040;-61
2022/03/26 00:43:23;;;;;;;28.75;13.73;;;12.40;44.60;;;;;;10075840;28;20390;-62
2022/03/26 00:48:13;;;;;;;24.92;11.85;;;12.40;44.70;;;;;;10064802;28;20419;-63
2022/03/26 00:53:04;;;;;;;28.27;12.85;;;12.30;44.60;;;;;;10065440;28;20025;-63
2022/03/26 00:57:55;;;;;;;27.30;12.98;;;12.40;44.50;;;;;;10070103;28;20569;-63
2022/03/26 01:02:46;;;;;;;27.08;13.85;;;12.30;44.40;;;;;;10064763;28;20091;-63
2022/03/26 01:07:37;;;;;;;24.65;13.23;;;12.40;44.40;;;;;;10062485;28;20530;-62
2022/03/26 01:12:27;;;;;;;25.88;12.68;;;12.10;44.90;;;;;;10056007;28;20036;-63
2022/03/26 01:17:19;;;;;;;26.73;12.40;;;12.10;44.90;;;;;;10049897;28;20029;-64
2022/03/26 01:22:10;;;;;;;30.55;13.70;;;12.10;45.10;;;;;;10047517;28;20021;-62
2022/03/26 01:27:00;;;;;;;26.95;12.85;;;12.00;45.40;;;;;;10067814;28;20042;-63
2022/03/26 01:31:51;;;;;;;29.27;12.93;;;12.00;45.30;;;;;;10065137;28;20033;-63
2022/03/26 01:36:42;;;;;;;25.95;12.77;;;12.00;45.40;;;;;;10067698;28;20029;-65
2022/03/26 01:41:33;;;;;;;24.92;13.15;;;11.70;45.90;;;;;;10041977;28;20102;-64
2022/03/26 01:46:24;;;;;;;24.20;11.77;;;11.70;46.00;;;;;;10057530;28;20037;-64
2022/03/26 01:51:14;;;;;;;28.17;14.20;;;11.70;45.90;;;;;;10061896;28;20040;-63
2022/03/26 01:56:06;;;;;;;28.55;12.63;;;11.60;46.10;;;;;;10053366;28;20025;-63
2022/03/26 02:00:57;;;;;;;24.38;12.27;;;11.60;46.40;;;;;;10055080;28;20434;-62
2022/03/26 02:05:47;;;;;;;23.48;13.02;;;11.50;46.50;;;;;;10063745;28;20104;-63
2022/03/26 02:10:38;;;;;;;27.13;13.13;;;11.40;46.70;;;;;;10055265;28;20037;-66
2022/03/26 02:15:29;;;;;;;27.10;13.25;;;11.30;47.20;;;;;;10067939;28;20016;-64
2022/03/26 02:20:22;;;;;;;29.13;12.77;;;11.30;47.20;;;;;;10082019;28;20049;-64
2022/03/26 02:25:13;;;;;;;23.52;11.75;;;11.10;47.30;;;;;;10077249;28;20037;-63
2022/03/26 02:30:05;;;;;;;23.60;10.93;;;11.20;47.30;;;;;;10067586;28;20041;-63
2022/03/26 02:34:57;;;;;;;27.02;11.52;;;11.10;47.40;;;;;;10050232;28;20029;-61
2022/03/26 02:39:48;;;;;;;28.25;12.77;;;11.00;48.00;;;;;;10059654;28;20029;-62
2022/03/26 02:44:39;;;;;;;27.60;11.77;;;11.00;48.00;;;;;;10049390;28;20056;-62
2022/03/26 02:49:29;;;;;;;24.13;11.57;;;11.00;48.00;;;;;;10054750;28;20029;-63
2022/03/26 02:54:20;;;;;;;27.05;11.95;;;11.00;48.20;;;;;;10080261;28;20022;-63
2022/03/26 02:59:10;;;;;;;26.13;12.18;;;11.00;48.00;;;;;;10080411;28;20605;-62
2022/03/26 03:04:01;;;;;;;24.55;11.25;;;10.80;48.40;;;;;;10057566;28;20357;-63
2022/03/26 03:08:53;;;;;;;18.85;11.15;;;10.80;48.30;;;;;;10063376;28;20039;-63
2022/03/26 03:13:43;;;;;;;27.65;13.27;;;10.90;48.10;;;;;;10057767;28;20075;-63
2022/03/26 03:18:34;;;;;;;26.25;10.57;;;11.00;47.80;;;;;;10082906;28;20465;-64
2022/03/26 03:23:24;;;;;;;25.50;11.05;;;10.90;47.80;;;;;;10073614;28;20507;-65
2022/03/26 03:28:15;;;;;;;24.33;12.05;;;10.80;48.10;;;;;;10055023;28;20049;-64
2022/03/26 03:33:06;;;;;;;26.98;11.32;;;10.80;48.10;;;;;;10048534;28;20029;-68
2022/03/26 03:37:56;;;;;;;21.98;10.05;;;10.70;48.50;;;;;;10068516;28;20369;-69
2022/03/26 03:42:47;;;;;;;24.92;12.43;;;10.70;48.30;;;;;;10069749;28;20028;-68
2022/03/26 03:47:38;;;;;;;25.42;11.10;;;10.60;48.40;;;;;;10077544;28;20084;-68
2022/03/26 03:52:29;;;;;;;24.10;10.45;;;10.60;48.40;;;;;;10074927;28;20029;-68
2022/03/26 03:57:20;;;;;;;23.05;10.80;;;10.50;48.60;;;;;;10071502;28;20048;-68
2022/03/26 04:02:11;;;;;;;23.23;10.63;;;10.60;48.60;;;;;;10043943;28;20033;-68
2022/03/26 04:07:01;;;;;;;24.77;10.50;;;10.50;48.60;;;;;;10065232;28;20030;-68
2022/03/26 04:11:52;;;;;;;23.60;10.35;;;10.40;48.60;;;;;;10041021;28;20030;-67
2022/03/26 04:16:42;;;;;;;21.50;10.27;;;10.40;49.00;;;;;;10069231;28;20025;-68
2022/03/26 04:21:33;;;;;;;21.60;12.32;;;10.40;48.50;;;;;;10086394;28;20014;-68
2022/03/26 04:26:24;;;;;;;20.98;9.55;;;10.40;48.90;;;;;;10074128;28;20041;-63
2022/03/26 04:31:14;;;;;;;18.90;9.23;;;10.30;49.00;;;;;;10072633;28;20429;-63
2022/03/26 04:36:05;;;;;;;21.45;9.75;;;10.30;48.90;;;;;;10046413;28;20591;-63
2022/03/26 04:40:56;;;;;;;21.58;10.10;;;10.40;48.60;;;;;;10062918;28;20017;-61
2022/03/26 04:45:46;;;;;;;20.58;9.15;;;10.20;48.90;;;;;;10059206;28;20404;-60
2022/03/26 04:50:37;;;;;;;18.75;9.07;;;10.10;49.30;;;;;;10066505;28;20052;-65
2022/03/26 04:55:28;;;;;;;19.77;9.80;;;10.00;49.50;;;;;;10079919;28;20161;-63
2022/03/26 05:00:19;;;;;;;22.08;9.73;;;10.00;49.40;;;;;;10062448;28;20029;-61
2022/03/26 05:05:12;;;;;;;20.35;9.57;;;10.10;49.40;;;;;;10057158;28;20041;-62
2022/03/26 05:10:03;;;;;;;19.15;8.68;;;10.20;49.10;;;;;;10066900;28;20416;-64
2022/03/26 05:14:54;;;;;;;23.67;9.02;;;10.10;49.20;;;;;;10054009;28;20029;-61
2022/03/26 05:19:44;;;;;;;23.55;10.10;;;10.00;49.50;;;;;;10079627;28;20498;-61
2022/03/26 05:24:35;;;;;;;20.75;9.40;;;9.90;49.60;;;;;;10066901;28;20116;-61
2022/03/26 05:29:26;;;;;;;24.23;9.27;;;9.90;49.40;;;;;;10073464;28;20184;-63
2022/03/26 05:34:17;;;;;;;20.25;9.43;;;9.90;49.60;;;;;;10069686;28;20056;-61
2022/03/26 05:39:08;;;;;;;20.23;10.13;;;9.90;49.50;;;;;;10065060;28;20080;-61
2022/03/26 05:44:00;;;;;;;19.58;9.88;;;9.90;49.40;;;;;;10041307;28;20282;-61
2022/03/26 05:48:51;;;;;;;19.95;9.40;;;9.80;49.80;;;;;;10057088;28;20541;-62
2022/03/26 05:53:41;;;;;;;18.92;8.57;;;9.80;49.80;;;;;;10064986;28;20025;-63
2022/03/26 05:58:32;;;;;;;19.80;8.55;;;9.90;49.70;;;;;;10067699;28;20538;-62
2022/03/26 06:03:23;;;;;;;21.60;8.95;;;9.80;49.80;;;;;;10040336;28;20281;-62
2022/03/26 06:08:14;;;;;;;17.92;9.30;;;9.90;49.80;;;;;;10057087;28;20403;-61
2022/03/26 06:13:05;;;;;;;18.55;7.93;;;9.90;49.80;;;;;;10053763;28;20280;-61
2022/03/26 06:17:55;;;;;;;17.92;9.18;;;10.00;49.70;;;;;;10067907;28;20303;-61
2022/03/26 06:22:46;;;;;;;19.00;8.50;;;9.90;49.90;;;;;;10073807;28;20013;-62
2022/03/26 06:27:37;;;;;;;20.15;9.82;;;10.00;49.80;;;;;;10070790;28;20049;-62
2022/03/26 06:32:28;;;;;;;20.15;9.73;;;10.00;49.70;;;;;;10052127;28;20037;-60
2022/03/26 06:37:20;;;;;;;20.50;9.60;;;10.10;49.70;;;;;;10061548;28;20088;-62
2022/03/26 06:42:11;;;;;;;20.05;9.93;;;10.10;49.80;;;;;;10072211;28;20029;-62
2022/03/26 06:47:02;;;;;;;19.45;8.63;;;10.10;50.20;;;;;;10069432;28;20029;-62
2022/03/26 06:51:53;;;;;;;18.75;9.23;;;10.10;50.10;;;;;;10065825;28;20373;-61
2022/03/26 06:56:44;;;;;;;18.05;8.73;;;10.30;49.90;;;;;;10068344;28;20013;-61
2022/03/26 07:01:34;;;;;;;16.83;7.85;;;10.30;50.00;;;;;;10065143;28;20021;-61
2022/03/26 07:06:25;;;;;;;21.13;9.50;;;10.40;49.80;;;;;;10063949;28;20033;-61
2022/03/26 07:11:16;;;;;;;19.52;8.95;;;10.40;49.90;;;;;;10063103;28;20036;-61
2022/03/26 07:16:07;;;;;;;24.58;10.45;;;10.40;50.10;;;;;;10042744;28;20507;-60
2022/03/26 07:21:00;;;;;;;20.45;8.98;;;10.40;50.10;;;;;;10089799;28;20341;-62
2022/03/26 07:25:51;;;;;;;17.58;10.00;;;10.50;50.10;;;;;;10090288;28;20171;-62
2022/03/26 07:30:42;;;;;;;21.27;10.32;;;10.70;49.90;;;;;;10079267;28;20196;-64
2022/03/26 07:35:33;;;;;;;22.80;9.70;;;10.70;49.80;;;;;;10078108;28;20084;-61
2022/03/26 07:40:24;;;;;;;16.63;9.10;;;10.80;50.00;;;;;;10072922;28;20056;-61
2022/03/26 07:45:14;;;;;;;19.95;9.23;;;10.90;49.90;;;;;;10062941;28;20414;-61
2022/03/26 07:50:06;;;;;;;19.52;9.63;;;11.20;49.60;;;;;;10042691;28;20049;-61
2022/03/26 07:54:57;;;;;;;17.05;9.52;;;11.20;49.60;;;;;;10057845;28;20438;-61
2022/03/26 07:59:47;;;;;;;21.20;10.77;;;11.20;49.60;;;;;;10080642;28;20037;-61
2022/03/26 08:04:38;;;;;;;23.35;10.48;;;11.30;49.60;;;;;;10063567;28;20025;-60
2022/03/26 08:09:29;;;;;;;20.30;10.20;;;11.40;49.40;;;;;;10069997;28;20052;-61
2022/03/26 08:14:20;;;;;;;23.15;10.10;;;11.50;49.20;;;;;;10051770;28;20463;-62
2022/03/26 08:19:10;;;;;;;20.92;10.38;;;11.60;49.20;;;;;;10079823;28;20040;-63
2022/03/26 08:24:02;;;;;;;22.40;9.55;;;11.80;49.00;;;;;;10069773;28;20067;-60
2022/03/26 08:28:54;;;;;;;24.23;10.32;;;11.90;48.80;;;;;;10072877;28;20431;-63
2022/03/26 08:33:48;;;;;;;18.85;9.30;;;12.00;48.60;;;;;;10075400;28;20496;-64
2022/03/26 08:38:39;;;;;;;18.42;9.73;;;12.20;48.50;;;;;;10071955;28;20311;-61
2022/03/26 08:43:31;;;;;;;20.90;10.43;;;12.20;48.50;;;;;;10065143;28;20044;-63
2022/03/26 08:48:22;;;;;;;27.40;11.40;;;12.30;48.40;;;;;;10058570;28;20040;-61
2022/03/26 08:53:13;;;;;;;23.50;11.82;;;12.40;48.30;;;;;;10040632;28;20084;-63
2022/03/26 08:58:04;;;;;;;21.08;10.13;;;12.60;48.10;;;;;;10057797;28;20036;-60
2022/03/26 09:02:55;;;;;;;24.63;12.43;;;12.60;48.00;;;;;;10062589;28;20456;-61
2022/03/26 09:07:46;;;;;;;24.48;12.32;;;12.80;47.80;;;;;;10069807;28;20041;-63
2022/03/26 09:12:37;;;;;;;22.00;12.13;;;13.00;47.70;;;;;;10068737;28;20029;-62
2022/03/26 09:17:28;;;;;;;23.27;11.50;;;13.10;47.50;;;;;;10065329;28;20036;-62
2022/03/26 09:22:19;;;;;;;22.02;10.05;;;13.20;47.40;;;;;;10062721;28;20040;-64
2022/03/26 09:27:10;;;;;;;21.35;10.70;;;13.30;47.20;;;;;;10040399;28;20056;-62
2022/03/26 09:32:01;;;;;;;24.65;11.30;;;13.50;47.00;;;;;;10063803;28;20042;-62
2022/03/26 09:36:53;;;;;;;26.60;11.25;;;13.70;46.80;;;;;;10064630;28;20026;-65
2022/03/26 09:41:45;;;;;;;22.40;11.20;;;13.80;46.70;;;;;;10058820;28;20075;-62
2022/03/26 09:46:35;;;;;;;20.33;11.07;;;14.00;46.40;;;;;;10067301;28;20029;-61
2022/03/26 09:51:26;;;;;;;24.80;11.77;;;14.10;46.40;;;;;;10061014;28;20511;-62
2022/03/26 09:56:17;;;;;;;26.55;12.02;;;14.20;46.30;;;;;;10056875;28;20485;-61
2022/03/26 10:01:08;;;;;;;24.27;11.95;;;14.30;46.10;;;;;;10064876;28;20242;-62
2022/03/26 10:06:04;;;;;;;27.25;12.70;;;14.40;46.10;;;;;;10053989;28;20029;-63
2022/03/26 10:10:55;;;;;;;25.58;14.00;;;14.50;45.90;;;;;;10071632;28;20687;-61
2022/03/26 10:16:10;;;;;;;22.48;11.63;;;14.60;45.80;;;;;;10062047;28;20029;-66
2022/03/26 10:21:02;;;;;;;29.45;13.20;;;14.80;45.50;;;;;;10045846;28;20553;-60
2022/03/26 10:26:10;;;;;;;31.08;13.57;;;15.00;45.50;;;;;;10065369;28;20083;-61
2022/03/26 10:36:25;;;;;;;23.20;12.60;;;15.10;45.10;;;;;;10060430;28;20288;-64
2022/03/26 10:41:21;;;;;;;24.65;13.77;;;15.30;45.10;;;;;;10054459;28;20052;-62
2022/03/26 10:46:11;;;;;;;26.58;13.32;;;15.40;44.80;;;;;;10068950;28;20029;-62
2022/03/26 10:51:13;;;;;;;27.83;12.68;;;15.50;44.90;;;;;;10080128;28;20053;-61
2022/03/26 10:56:06;;;;;;;27.00;13.48;;;15.70;44.60;;;;;;10075043;28;20025;-62
2022/03/26 11:00:57;;;;;;;26.95;12.30;;;15.90;44.50;;;;;;10060443;28;20109;-62
2022/03/26 11:05:51;;;;;;;27.88;14.07;;;15.90;44.50;;;;;;10055690;28;20028;-61
2022/03/26 11:10:42;;;;;;;26.08;12.55;;;16.10;44.40;;;;;;10062175;28;20513;-63
2022/03/26 11:15:45;;;;;;;22.63;13.32;;;16.20;44.10;;;;;;10062179;28;20021;-62
2022/03/26 11:21:06;;;;;;;27.15;14.07;;;16.40;44.00;;;;;;10049080;28;20021;-61
2022/03/26 11:26:12;;;;;;;26.70;13.77;;;16.50;43.60;;;;;;10060944;28;20318;-63
2022/03/26 11:31:11;;;;;;;26.70;12.88;;;16.80;43.70;;;;;;10064743;28;20222;-61
2022/03/26 11:36:10;;;;;;;24.17;13.23;;;16.90;43.40;;;;;;10068178;28;20602;-62
2022/03/26 11:41:08;;;;;;;26.27;13.57;;;17.00;43.20;;;;;;10061361;28;20029;-61
2022/03/26 11:51:22;;;;;;;28.80;15.43;;;17.20;42.90;;;;;;10083051;28;20386;-61
2022/03/26 11:56:24;;;;;;;28.67;12.63;;;17.30;42.40;;;;;;10075116;28;20431;-61
2022/03/26 12:01:15;;;;;;;24.25;14.30;;;17.60;41.40;;;;;;10064715;28;20041;-62
2022/03/26 12:11:15;;;;;;;25.83;14.10;;;18.00;41.20;;;;;;10073981;28;20531;-61
2022/03/26 12:16:07;;;;;;;27.67;13.52;;;18.10;40.80;;;;;;10049806;28;20056;-60
2022/03/26 12:21:06;;;;;;;27.50;14.50;;;18.20;40.70;;;;;;10041817;28;20029;-60
2022/03/26 12:26:07;;;;;;;28.17;14.82;;;18.30;40.00;;;;;;10055741;28;20032;-61
2022/03/26 12:31:00;;;;;;;23.92;14.57;;;18.40;39.90;;;;;;10077261;28;20090;-62
2022/03/26 12:35:54;;;;;;;24.92;14.50;;;18.60;39.90;;;;;;10060504;28;20026;-61
2022/03/26 12:40:59;;;;;;;28.30;16.85;;;18.90;39.50;;;;;;10059976;28;20621;-61
2022/03/26 12:45:52;;;;;;;26.42;15.30;;;19.20;38.40;;;;;;10046007;28;20543;-61
2022/03/26 12:50:45;;;;;;;25.15;14.63;;;19.30;38.90;;;;;;10083245;28;20550;-62
2022/03/26 12:55:36;;;;;;;30.73;14.93;;;19.60;39.00;;;;;;10071882;28;20045;-60
2022/03/26 13:00:27;;;;;;;27.60;15.60;;;19.70;38.50;;;;;;10063620;28;20550;-61
2022/03/26 13:05:18;;;;;;;24.65;15.40;;;20.00;38.20;;;;;;10060839;28;20310;-66
2022/03/26 13:10:08;;;;;;;24.75;15.75;;;20.40;38.10;;;;;;10056243;28;20399;-64
2022/03/26 13:15:00;;;;;;;28.35;16.17;;;20.70;37.80;;;;;;10078149;28;20033;-61
2022/03/26 13:19:57;;;;;;;26.02;15.85;;;20.80;37.50;;;;;;10063836;28;20025;-63
2022/03/26 13:24:52;;;;;;;24.42;16.10;;;21.10;36.10;;;;;;10055863;28;20120;-61
2022/03/26 13:29:42;;;;;;;25.02;16.42;;;21.50;36.00;;;;;;10078941;28;20079;-63
2022/03/26 13:34:36;;;;;;;23.40;15.05;;;22.40;35.90;;;;;;10040045;28;20488;-62
2022/03/26 13:39:28;;;;;;;26.83;15.25;;;23.30;34.00;;;;;;10059121;28;20466;-64
2022/03/26 13:44:20;;;;;;;20.80;13.98;;;25.80;32.60;;;;;;10065955;28;20036;-63
2022/03/26 13:49:30;;;;;;;21.63;13.68;;;26.80;31.30;;;;;;10035434;28;20403;-63
2022/03/26 13:54:34;;;;;;;21.25;15.05;;;27.70;29.70;;;;;;10058771;28;20120;-62
2022/03/26 13:59:26;;;;;;;26.83;15.20;;;27.50;29.20;;;;;;10058731;28;20247;-62
2022/03/26 14:04:25;;;;;;;20.20;13.73;;;27.40;29.60;;;;;;10058379;28;20064;-62
2022/03/26 14:09:22;;;;;;;21.60;13.85;;;27.30;28.90;;;;;;10058253;28;20053;-63
2022/03/26 14:14:13;;;;;;;23.48;14.80;;;26.60;28.60;;;;;;10056967;28;20113;-62
2022/03/26 14:19:04;;;;;;;22.25;14.38;;;25.90;29.20;;;;;;10056506;28;20029;-64
2022/03/26 14:23:54;;;;;;;25.55;14.45;;;25.40;29.40;;;;;;10056042;28;20087;-62
2022/03/26 14:28:47;;;;;;;20.95;13.52;;;25.10;29.40;;;;;;10065776;28;20053;-62
2022/03/26 14:33:38;;;;;;;21.83;12.93;;;25.20;29.20;;;;;;10067204;28;20021;-62
2022/03/26 14:38:28;;;;;;;19.45;12.23;;;25.10;29.00;;;;;;10064591;28;20053;-62
2022/03/26 14:43:19;;;;;;;20.92;13.18;;;24.90;28.80;;;;;;10055233;28;20590;-62
2022/03/26 14:48:10;;;;;;;17.80;12.23;;;25.40;28.40;;;;;;10059893;28;20545;-62
2022/03/26 14:53:00;;;;;;;20.50;13.23;;;25.70;28.30;;;;;;10045611;28;20032;-62
2022/03/26 14:57:54;;;;;;;18.27;11.90;;;25.80;28.00;;;;;;10061662;28;20021;-62
2022/03/26 15:02:45;;;;;;;19.60;11.82;;;26.40;27.80;;;;;;10039391;28;20083;-62
2022/03/26 15:07:37;;;;;;;18.25;10.80;;;26.60;27.50;;;;;;10055755;28;20083;-63
2022/03/26 15:12:27;;;;;;;20.20;11.75;;;27.30;27.20;;;;;;10061961;28;20033;-64
2022/03/26 15:17:18;;;;;;;16.67;11.55;;;27.90;26.80;;;;;;10076264;28;20021;-63
2022/03/26 15:22:09;;;;;;;21.98;11.85;;;28.40;26.70;;;;;;10087777;28;20025;-62
2022/03/26 15:27:00;;;;;;;18.77;11.50;;;28.80;26.20;;;;;;10070669;28;20403;-63
2022/03/26 15:31:51;;;;;;;17.95;10.27;;;28.50;26.00;;;;;;10079029;28;20060;-61
2022/03/26 15:36:41;;;;;;;18.83;11.52;;;28.70;25.90;;;;;;10069181;28;20117;-65
2022/03/26 15:41:32;;;;;;;20.00;12.27;;;29.00;25.50;;;;;;10058306;28;20034;-61
2022/03/26 15:46:23;;;;;;;18.25;10.85;;;28.70;25.30;;;;;;10068732;28;20033;-68
2022/03/26 15:51:14;;;;;;;18.33;11.02;;;29.10;25.20;;;;;;10065463;28;20033;-62
2022/03/26 15:56:05;;;;;;;17.88;10.38;;;28.30;25.10;;;;;;10060767;28;20037;-62
2022/03/26 16:00:56;;;;;;;18.42;11.02;;;28.00;25.30;;;;;;10073583;28;20554;-64
2022/03/26 16:05:47;;;;;;;18.52;11.15;;;27.90;25.40;;;;;;10058344;28;20024;-63
2022/03/26 16:10:37;;;;;;;17.10;10.85;;;27.60;25.40;;;;;;10036447;28;20685;-63
2022/03/26 16:15:28;;;;;;;18.70;9.93;;;27.60;25.30;;;;;;10063667;28;20419;-63
2022/03/26 16:20:19;;;;;;;17.65;10.07;;;27.60;25.40;;;;;;10067822;28;20037;-63
2022/03/26 16:25:10;;;;;;;17.60;11.18;;;27.40;25.30;;;;;;10067467;28;20071;-63
2022/03/26 16:30:00;;;;;;;15.55;10.45;;;27.70;25.40;;;;;;10076326;28;20049;-63
2022/03/26 16:34:52;;;;;;;17.52;10.30;;;27.50;25.20;;;;;;10076225;28;20044;-63
2022/03/26 16:39:43;;;;;;;16.15;10.45;;;25.20;26.00;;;;;;10075244;28;20033;-62
2022/03/26 16:44:34;;;;;;;14.80;8.65;;;24.50;26.40;;;;;;10054199;28;20451;-64
2022/03/26 16:49:24;;;;;;;20.08;10.18;;;25.40;25.90;;;;;;10056079;28;20231;-62
2022/03/26 16:54:15;;;;;;;17.02;10.40;;;25.00;25.80;;;;;;10057498;28;20075;-64
2022/03/26 16:59:06;;;;;;;18.08;9.88;;;24.90;26.10;;;;;;10060458;28;20099;-63
2022/03/26 17:03:57;;;;;;;16.35;10.40;;;24.60;26.30;;;;;;10056347;28;20267;-63
2022/03/26 17:08:47;;;;;;;16.58;9.40;;;23.50;26.60;;;;;;10049240;28;20048;-63
2022/03/26 17:13:38;;;;;;;18.50;9.15;;;21.80;27.70;;;;;;10058228;28;20026;-61
2022/03/26 17:18:29;;;;;;;15.52;10.02;;;20.70;28.30;;;;;;10067980;28;20140;-61
2022/03/26 17:23:20;;;;;;;18.02;9.23;;;20.10;28.60;;;;;;10064464;28;20030;-67
2022/03/26 17:28:11;;;;;;;16.02;9.05;;;19.70;28.80;;;;;;10047681;28;20087;-65
2022/03/26 17:33:02;;;;;;;14.32;8.23;;;19.50;28.90;;;;;;10075488;28;20510;-61
2022/03/26 17:37:52;;;;;;;16.50;8.75;;;19.40;29.10;;;;;;10071788;28;20080;-62
2022/03/26 17:42:45;;;;;;;15.20;8.02;;;19.10;29.20;;;;;;10065042;28;20017;-62
2022/03/26 17:47:36;;;;;;;13.77;7.70;;;19.00;29.30;;;;;;10062022;28;20392;-62
2022/03/26 17:52:26;;;;;;;16.35;8.05;;;18.80;29.50;;;;;;10037862;28;20033;-62
2022/03/26 17:57:17;;;;;;;13.02;7.63;;;18.70;29.70;;;;;;10051995;28;20198;-60
2022/03/26 18:02:07;;;;;;;14.68;7.43;;;18.50;29.70;;;;;;10054976;28;20033;-65
2022/03/26 18:06:58;;;;;;;12.90;6.25;;;18.40;29.80;;;;;;10072801;28;20040;-63
2022/03/26 18:11:49;;;;;;;12.32;8.32;;;18.30;29.90;;;;;;10065662;28;20507;-65
2022/03/26 18:16:40;;;;;;;12.95;6.90;;;18.20;29.90;;;;;;10062956;28;20116;-63
2022/03/26 18:21:31;;;;;;;13.23;6.85;;;18.10;30.00;;;;;;10037353;28;20084;-63
2022/03/26 18:26:21;;;;;;;16.23;8.15;;;18.00;30.00;;;;;;10059146;28;20049;-65
2022/03/26 18:31:12;;;;;;;13.52;6.35;;;17.90;30.10;;;;;;10059722;28;20271;-66
2022/03/26 18:36:03;;;;;;;14.43;7.13;;;17.90;30.90;;;;;;10054648;28;20030;-65
2022/03/26 18:40:54;;;;;;;12.50;6.82;;;17.80;30.20;;;;;;10054233;28;20029;-66
2022/03/26 18:45:45;;;;;;;10.25;6.40;;;17.60;30.40;;;;;;10054369;28;20014;-66
2022/03/26 18:50:36;;;;;;;13.80;7.35;;;17.60;30.40;;;;;;10058161;28;20095;-66
2022/03/26 18:55:27;;;;;;;13.90;8.20;;;17.70;30.50;;;;;;10037959;28;20773;-66
2022/03/26 19:00:42;;;;;;;12.75;6.88;;;17.50;30.60;;;;;;10070531;28;20031;-67
2022/03/26 19:05:34;;;;;;;11.32;6.13;;;17.40;30.70;;;;;;10050318;28;20828;-68
2022/03/26 19:10:25;;;;;;;16.77;7.25;;;17.40;30.80;;;;;;10058777;28;20202;-66
2022/03/26 19:15:16;;;;;;;13.98;6.20;;;17.30;31.00;;;;;;10064392;28;20025;-67
2022/03/26 19:20:08;;;;;;;13.38;6.07;;;17.20;31.00;;;;;;10058615;28;20037;-68
2022/03/26 19:24:59;;;;;;;13.63;6.55;;;17.20;31.10;;;;;;10053317;28;20120;-68
2022/03/26 19:29:50;;;;;;;15.75;6.50;;;17.10;31.20;;;;;;10080068;28;20163;-67
2022/03/26 19:34:42;;;;;;;14.10;6.88;;;17.00;31.40;;;;;;10077557;28;20505;-67
2022/03/26 19:39:33;;;;;;;12.45;7.03;;;17.00;31.60;;;;;;10064923;28;20118;-65
2022/03/26 19:44:24;;;;;;;13.77;6.47;;;16.90;31.70;;;;;;10067840;28;20402;-67
2022/03/26 19:49:17;;;;;;;127.95;60.38;;;16.90;31.80;;;;;;10062941;28;20034;-67
2022/03/26 19:54:08;;;;;;;39.42;19.02;;;16.80;32.00;;;;;;10041371;28;20060;-67
2022/03/26 19:58:58;;;;;;;19.45;9.57;;;16.80;32.00;;;;;;10063846;28;20460;-67
2022/03/26 20:03:49;;;;;;;23.35;8.65;;;16.70;32.20;;;;;;10049115;28;20428;-67
2022/03/26 20:08:40;;;;;;;13.15;6.75;;;16.70;32.40;;;;;;10070775;28;20037;-66
2022/03/26 20:13:31;;;;;;;20.80;7.38;;;16.60;32.50;;;;;;10068404;28;20126;-67
2022/03/26 20:18:40;;;;;;;13.75;7.30;;;16.50;32.60;;;;;;10062556;28;20025;-68
2022/03/26 20:23:30;;;;;;;14.27;7.22;;;16.50;32.70;;;;;;10058184;28;20029;-68
2022/03/26 20:28:24;;;;;;;18.38;6.72;;;16.50;32.90;;;;;;10052513;28;20140;-67
2022/03/26 20:33:14;;;;;;;14.48;7.57;;;16.40;33.10;;;;;;10051708;28;20033;-67
2022/03/26 20:38:05;;;;;;;13.50;6.47;;;16.30;33.20;;;;;;10031164;28;20028;-69
2022/03/26 20:42:56;;;;;;;11.88;6.20;;;16.20;33.30;;;;;;10073588;28;20048;-67
2022/03/26 20:47:48;;;;;;;16.05;6.75;;;16.20;33.50;;;;;;10046884;28;20040;-67
2022/03/26 20:52:39;;;;;;;13.05;7.03;;;16.10;33.70;;;;;;10059779;28;20132;-67
2022/03/26 20:57:29;;;;;;;14.18;6.88;;;16.10;33.80;;;;;;10039088;28;20661;-67
2022/03/26 21:02:20;;;;;;;12.98;6.63;;;16.00;34.10;;;;;;10069694;28;20037;-67
2022/03/26 21:07:11;;;;;;;12.60;6.18;;;15.90;34.30;;;;;;10071460;28;20399;-67
2022/03/26 21:12:02;;;;;;;13.40;6.30;;;15.80;34.10;;;;;;10070177;28;20092;-67
2022/03/26 21:16:53;;;;;;;12.75;6.90;;;15.80;34.20;;;;;;10071444;28;20029;-66
2022/03/26 21:21:44;;;;;;;16.17;7.88;;;15.60;34.40;;;;;;10066617;28;20112;-67
2022/03/26 21:26:36;;;;;;;15.75;5.80;;;15.60;34.60;;;;;;10028968;28;20400;-67
2022/03/26 21:31:27;;;;;;;16.17;6.72;;;15.50;34.80;;;;;;10066451;28;20045;-66
2022/03/26 21:36:17;;;;;;;13.40;5.70;;;15.50;35.00;;;;;;10076479;28;20075;-67
2022/03/26 21:41:08;;;;;;;14.88;5.85;;;15.40;35.10;;;;;;10043729;28;20033;-67
2022/03/26 21:45:59;;;;;;;18.27;7.47;;;15.20;35.40;;;;;;10037528;28;20089;-67
2022/03/26 21:50:50;;;;;;;16.35;5.70;;;15.30;35.30;;;;;;10065036;28;20060;-66
2022/03/26 21:55:41;;;;;;;14.90;6.55;;;15.20;35.30;;;;;;10061878;28;20025;-67
2022/03/26 22:00:32;;;;;;;13.00;5.75;;;15.10;35.60;;;;;;10073309;28;20033;-66
2022/03/26 22:05:23;;;;;;;11.18;5.60;;;15.00;35.80;;;;;;10051041;28;20407;-66
2022/03/26 22:10:14;;;;;;;17.23;6.57;;;14.90;36.10;;;;;;10055558;28;20041;-67
2022/03/26 22:15:06;;;;;;;10.77;6.20;;;14.90;36.10;;;;;;10052632;28;20061;-67
2022/03/26 22:19:57;;;;;;;13.60;6.22;;;14.80;36.40;;;;;;10062056;28;20431;-66
2022/03/26 22:24:48;;;;;;;15.68;5.70;;;14.70;36.50;;;;;;10050582;28;20032;-67
2022/03/26 22:29:40;;;;;;;18.15;7.18;;;14.70;36.60;;;;;;10049651;28;20286;-66
2022/03/26 22:34:31;;;;;;;16.42;7.03;;;14.60;37.00;;;;;;10046527;28;20510;-67
2022/03/26 22:39:22;;;;;;;18.10;7.10;;;14.60;36.80;;;;;;10059199;28;20029;-67
2022/03/26 22:44:13;;;;;;;19.38;6.95;;;14.50;36.90;;;;;;10060217;28;20033;-68
2022/03/26 22:49:04;;;;;;;18.02;6.90;;;14.40;37.10;;;;;;10045807;28;20733;-67
2022/03/26 22:53:55;;;;;;;14.77;5.97;;;14.30;37.50;;;;;;10059860;28;20334;-67
2022/03/26 22:58:45;;;;;;;23.17;6.65;;;14.20;37.90;;;;;;10056760;28;20040;-66
2022/03/26 23:03:36;;;;;;;13.82;7.03;;;14.10;38.10;;;;;;10058419;28;20017;-67
2022/03/26 23:08:27;;;;;;;15.48;6.35;;;13.90;38.30;;;;;;10058828;28;20121;-66
2022/03/26 23:13:17;;;;;;;13.63;6.10;;;13.90;38.40;;;;;;10066294;28;20473;-66
2022/03/26 23:18:09;;;;;;;14.68;5.82;;;13.80;38.70;;;;;;10062706;28;20080;-66
2022/03/26 23:23:00;;;;;;;14.77;6.40;;;13.70;38.80;;;;;;10067026;28;20033;-66
2022/03/26 23:27:50;;;;;;;16.77;6.95;;;13.60;39.20;;;;;;10068980;28;20045;-66
2022/03/26 23:32:41;;;;;;;11.13;4.95;;;13.50;39.60;;;;;;10064135;28;20034;-66
2022/03/26 23:37:33;;;;;;;14.45;7.30;;;13.40;39.80;;;;;;10063386;28;20030;-65
2022/03/26 23:42:24;;;;;;;15.73;5.18;;;13.40;39.90;;;;;;10059919;28;20510;-65
2022/03/26 23:47:15;;;;;;;14.15;5.03;;;13.40;39.80;;;;;;10059050;28;20032;-67
2022/03/26 23:52:06;;;;;;;14.18;6.28;;;13.30;39.90;;;;;;10066131;28;20547;-67
2022/03/26 23:56:57;;;;;;;17.30;5.65;;;13.30;39.90;;;;;;10071997;28;20033;-66
